This is the latest recevied weather packets stored in our database for station/object LRSB. If no packets are shown the sender has not sent any weather packets the latest 10 day(s).
| Time | Temp. | Humidity | Pressure | Rain* | Wind** | Luminosity | Snow |
|---|---|---|---|---|---|---|---|
| 1777958291 | 12.22° C | 67% | 1017 hPa | - | - | - | - |
| 1777957391 | 12.22° C | 67% | 1017 hPa | - | - | - | - |
| 1777956491 | 10° C | 82% | 1017 hPa | - | - | - | - |
| 1777955591 | 10° C | 82% | 1017 hPa | - | - | - | - |
| 1777954691 | 8.89° C | 76% | 1017 hPa | - | - | - | - |
| 1777953791 | 8.89° C | 76% | 1017 hPa | - | - | - | - |
| 1777952891 | 7.22° C | 81% | 1017 hPa | - | - | - | - |
| 1777951991 | 7.22° C | 81% | 1017 hPa | - | - | - | - |
| 1777951091 | 7.78° C | 76% | 1017 hPa | - | - | - | - |
| 1777950191 | 7.78° C | 76% | 1017 hPa | - | - | - | - |
| 1777949291 | 7.78° C | 76% | 1017 hPa | - | - | - | - |
| 1777948391 | 7.78° C | 76% | 1017 hPa | - | - | - | - |
| 1777947491 | 8.89° C | 76% | 1017 hPa | - | - | - | - |
| 1777946591 | 8.89° C | 76% | 1017 hPa | - | - | - | - |
| 1777945691 | 10° C | 71% | 1017 hPa | - | - | - | - |
| 1777944791 | 10° C | 71% | 1017 hPa | - | - | - | - |
| 1777943891 | 10° C | 71% | 1017 hPa | - | - | - | - |
| 1777942992 | 10° C | 71% | 1017 hPa | - | - | - | - |
| 1777942091 | 10° C | 71% | 1017 hPa | - | - | - | - |
| 1777941191 | 10° C | 71% | 1017 hPa | - | - | - | - |
| 1777940291 | 11.11° C | 67% | 1017 hPa | - | - | - | - |
| 1777939391 | 11.11° C | 67% | 1017 hPa | - | - | - | - |
| 1777938491 | 11.11° C | 67% | 1017 hPa | - | - | - | - |
| 1777937591 | 11.11° C | 67% | 1017 hPa | - | - | - | - |
| 1777936691 | 11.11° C | 62% | 1017 hPa | - | - | - | - |
* Rain since midnight (hover to see other rain measurements)
** Current wind speed in m/s (hover to see current wind gust speed)